Date,TemperatureHighF,TemperatureAvgF,TemperatureLowF,DewpointHighF,DewpointAvgF,DewpointLowF,HumidityHigh,HumidityAvg,HumidityLow,PressureMaxIn,PressureMinIn,WindSpeedMaxMPH,WindSpeedAvgMPH,GustSpeedMaxMPH,PrecipitationSumIn
2013-3-1,38.5,33.9,31.0,33.4,29.4,27.6,90,84,72,29.92,29.86,7,1,12,0.00
2013-3-2,36.9,31.2,26.7,30.5,24.4,14.7,92,76,57,29.99,29.85,13,1,13,0.05
2013-3-3,30.6,26.7,22.5,20.6,15.9,11.5,87,64,54,30.06,29.97,10,2,12,0.00
2013-3-4,48.8,34.7,21.8,25.7,17.4,10.6,79,52,23,30.17,29.98,9,1,12,0.00
2013-3-5,46.2,39.3,31.3,45.4,34.6,20.8,97,84,47,29.99,29.55,16,1,16,1.56
2013-3-6,31.3,28.3,26.1,28.6,24.8,20.1,93,86,72,30.21,29.71,20,3,20,0.03
2013-3-7,34.7,31.2,28.5,26.5,24.7,22.5,88,77,66,30.32,30.19,6,1,12,0.00
2013-3-8,47.9,34.9,24.4,26.0,23.6,20.7,89,65,40,30.38,30.28,10,1,12,0.00
2013-3-9,66.6,44.0,27.5,35.1,26.5,17.5,88,56,20,30.30,30.12,7,0,12,0.00
2013-3-10,70.9,55.8,46.2,33.1,29.0,25.2,58,37,22,30.12,29.93,15,2,15,0.00
2013-3-11,59.6,54.1,49.4,50.9,43.6,30.6,97,70,39,29.94,29.70,19,2,19,0.47
2013-3-12,50.2,41.6,31.8,49.1,34.9,28.5,96,79,50,30.03,29.71,15,2,15,0.17
2013-3-13,40.8,34.5,29.0,30.6,22.8,11.5,90,64,36,30.25,29.99,15,2,12,0.00
2013-3-14,42.2,29.5,23.9,15.7,13.5,10.7,67,52,29,30.34,30.23,11,2,0,0.00
2013-3-15,59.3,43.5,27.9,44.3,27.3,16.2,85,54,38,30.20,29.83,12,1,6,0.00
2013-3-16,71.5,60.9,47.3,48.0,44.1,40.2,91,55,39,29.84,29.63,16,3,0,0.01
2013-3-17,61.0,54.4,49.4,51.4,47.9,44.6,96,79,61,29.89,29.77,12,1,0,0.09
2013-3-18,58.1,49.0,43.3,51.8,44.7,38.4,97,86,59,29.86,29.72,10,1,0,0.82
2013-3-19,53.9,45.8,36.5,48.3,25.0,3.2,97,52,16,30.05,29.73,19,3,0,0.07
2013-3-20,51.3,39.4,27.6,28.1,12.8,3.2,69,37,17,30.08,29.81,19,2,0,0.00
2013-3-21,34.7,27.4,20.5,14.9,7.7,4.3,57,43,29,30.00,29.83,12,3,0,0.00
2013-3-22,44.3,32.3,0.0,22.0,12.0,0.0,77,43,25,30.07,29.92,7,1,0,0.00
2013-3-23,53.2,42.5,33.7,35.5,27.7,19.2,72,56,44,29.99,29.76,5,0,0,0.00
2013-3-24,52.8,44.8,41.8,45.8,40.5,33.1,96,86,61,29.76,29.32,13,1,0,0.88
2013-3-25,41.8,32.0,28.8,39.7,27.9,23.2,93,85,72,29.92,29.43,16,4,0,0.16
2013-3-26,34.9,31.3,28.2,28.7,26.1,24.1,91,81,66,30.21,29.91,13,2,0,0.00
2013-3-27,42.1,33.9,29.5,28.3,22.6,18.0,90,65,41,30.28,30.19,12,2,0,0.00
2013-3-28,51.4,36.9,25.1,26.7,21.2,17.5,84,56,27,30.30,30.21,13,1,0,0.00
2013-3-29,51.1,37.7,27.0,36.5,25.9,13.3,91,65,22,30.31,30.19,13,1,0,0.00
2013-3-30,59.6,46.5,35.5,40.2,37.2,32.9,92,72,43,30.19,29.94,10,1,0,0.00
2013-3-31,57.6,49.8,45.2,53.1,47.5,38.3,97,92,73,29.95,29.77,10,1,0,0.57